Time;durP1;ratioP1;P1;durP2;ratioP2;P2;SDS_P1;SDS_P2;PMS_P1;PMS_P2;Temp;Humidity;BMP_temperature;BMP_pressure;BME280_temperature;BME280_humidity;BME280_pressure;Samples;Min_cycle;Max_cycle;Signal;HPM_P1;HPM_P2
2023/05/10 00:01:27;;;;;;;3.73;2.90;;;;;;;9.95;67.48;95919.09;10417134;28;20231;-61
2023/05/10 00:06:27;;;;;;;5.97;2.90;;;;;;;9.80;68.49;95931.25;10417168;28;20208;-62
2023/05/10 00:11:28;;;;;;;5.63;2.13;;;;;;;9.86;68.62;95898.38;10417126;28;20733;-62
2023/05/10 00:16:28;;;;;;;3.90;2.70;;;;;;;9.79;68.30;95913.94;10416577;28;20240;-63
2023/05/10 00:21:29;;;;;;;4.87;2.57;;;;;;;9.75;68.81;95912.66;10416650;28;20232;-63
2023/05/10 00:26:29;;;;;;;3.97;2.37;;;;;;;9.85;68.62;95908.03;10416143;28;20216;-62
2023/05/10 00:31:30;;;;;;;4.27;3.10;;;;;;;9.72;69.46;95910.38;10414820;28;20188;-62
2023/05/10 00:36:31;;;;;;;6.87;2.90;;;;;;;9.70;69.55;95926.22;10414679;28;20315;-63
2023/05/10 00:41:32;;;;;;;3.57;2.90;;;;;;;9.74;69.44;95909.22;10415623;28;20635;-61
2023/05/10 00:46:33;;;;;;;4.53;2.70;;;;;;;9.77;69.72;95901.03;10414285;28;20235;-63
2023/05/10 00:51:34;;;;;;;4.00;3.13;;;;;;;9.69;69.71;95919.38;10414068;28;20280;-62
2023/05/10 00:56:34;;;;;;;4.63;2.23;;;;;;;9.66;69.51;95909.25;10415099;28;20227;-63
2023/05/10 01:01:36;;;;;;;2.73;2.40;;;;;;;9.70;69.27;95896.66;10413138;28;20263;-63
2023/05/10 01:06:36;;;;;;;3.50;2.40;;;;;;;9.57;70.12;95898.03;10414558;28;20200;-63
2023/05/10 01:11:38;;;;;;;4.10;3.10;;;;;;;9.52;70.12;95884.63;10414486;28;20185;-63
2023/05/10 01:16:40;;;;;;;4.37;3.00;;;;;;;9.54;70.04;95872.22;10413098;28;20266;-63
2023/05/10 01:21:48;;;;;;;4.63;3.17;;;;;;;9.46;71.10;95882.69;10412910;28;20244;-63
2023/05/10 01:27:06;;;;;;;4.97;3.30;;;;;;;9.41;71.00;95875.38;10414168;28;20228;-63
2023/05/10 01:32:28;;;;;;;2.33;1.97;;;;;;;9.34;71.39;95879.66;10413519;28;20190;-62
2023/05/10 01:37:36;;;;;;;3.57;3.00;;;;;;;9.28;71.17;95869.88;10413656;28;20203;-63
2023/05/10 01:42:42;;;;;;;4.47;2.70;;;;;;;9.24;71.64;95860.75;10411850;28;20220;-62
2023/05/10 01:47:43;;;;;;;2.73;2.37;;;;;;;9.20;71.40;95873.31;10413135;28;20234;-61
2023/05/10 01:52:47;;;;;;;2.90;2.47;;;;;;;9.12;71.68;95868.13;10411663;28;20220;-62
2023/05/10 01:57:51;;;;;;;3.07;2.70;;;;;;;9.05;72.22;95875.00;10411059;28;20199;-61
2023/05/10 02:02:52;;;;;;;5.20;2.97;;;;;;;9.05;72.01;95873.22;10394559;28;20217;-61
2023/05/10 02:07:53;;;;;;;2.77;2.50;;;;;;;9.08;72.02;95872.88;10411240;28;20201;-62
2023/05/10 02:12:54;;;;;;;5.60;2.30;;;;;;;9.09;72.97;95869.25;10410443;28;20686;-62
2023/05/10 02:17:56;;;;;;;3.27;2.93;;;;;;;8.92;73.03;95881.56;10393807;28;20259;-62
2023/05/10 02:22:57;;;;;;;3.87;2.80;;;;;;;8.93;73.15;95872.75;10393484;28;20225;-61
2023/05/10 02:28:00;;;;;;;7.93;2.90;;;;;;;8.97;72.90;95859.34;10411604;28;20262;-61
2023/05/10 02:33:02;;;;;;;5.63;2.70;;;;;;;9.01;73.10;95853.63;10410160;28;20236;-61
2023/05/10 02:38:04;;;;;;;3.07;2.60;;;;;;;8.97;73.48;95854.94;10410092;28;20204;-61
2023/05/10 02:43:06;;;;;;;3.83;2.53;;;;;;;8.86;73.64;95858.72;10411325;28;20204;-62
2023/05/10 02:48:07;;;;;;;4.83;2.00;;;;;;;8.81;74.59;95857.59;10395527;28;20679;-63
2023/05/10 02:53:11;;;;;;;2.63;2.43;;;;;;;8.91;73.88;95864.28;10370205;28;20201;-61
2023/05/10 02:58:11;;;;;;;5.47;2.93;;;;;;;9.05;73.82;95865.38;10369254;28;20227;-61
2023/05/10 03:03:12;;;;;;;3.93;2.63;;;;;;;8.87;74.45;95857.75;10380780;28;20224;-62
2023/05/10 03:08:12;;;;;;;4.77;2.27;;;;;;;8.96;74.32;95858.56;10411428;28;20287;-61
2023/05/10 03:13:39;;;;;;;5.27;3.00;;;;;;;9.01;75.08;95860.66;10417596;28;20228;-61
2023/05/10 03:18:50;;;;;;;3.53;2.20;;;;;;;9.15;74.36;95857.34;10364782;28;20232;-62
2023/05/10 03:23:56;;;;;;;4.53;2.97;;;;;;;9.23;73.48;95851.25;10417412;28;20665;-61
2023/05/10 03:28:58;;;;;;;3.47;2.47;;;;;;;9.04;74.55;95853.28;10418738;28;20181;-62
2023/05/10 03:33:59;;;;;;;3.67;2.67;;;;;;;9.07;74.78;95854.75;10416931;28;20236;-61
2023/05/10 03:39:00;;;;;;;3.93;2.53;;;;;;;9.10;74.52;95847.38;10416762;28;20221;-60
2023/05/10 03:44:01;;;;;;;5.07;2.63;;;;;;;9.17;74.25;95851.94;10416639;28;20211;-61
2023/05/10 03:49:02;;;;;;;3.67;2.80;;;;;;;9.19;73.92;95850.78;10416618;28;20713;-62
2023/05/10 03:54:03;;;;;;;2.93;2.53;;;;;;;9.23;73.69;95846.88;10417632;28;20303;-62
2023/05/10 03:59:07;;;;;;;3.93;3.07;;;;;;;9.08;74.38;95851.97;10417640;28;20220;-61
2023/05/10 04:04:07;;;;;;;4.33;3.10;;;;;;;9.16;73.97;95843.31;10416828;28;20319;-62
2023/05/10 04:09:08;;;;;;;2.50;2.23;;;;;;;9.21;73.83;95838.38;10417059;28;20288;-60
2023/05/10 04:14:08;;;;;;;3.10;2.80;;;;;;;9.08;74.44;95848.53;10447078;28;20218;-61
2023/05/10 04:19:09;;;;;;;3.00;2.40;;;;;;;8.98;75.41;95848.75;10442342;28;20209;-59
2023/05/10 04:24:09;;;;;;;2.83;2.43;;;;;;;9.15;74.82;95846.88;10416426;28;20216;-62
2023/05/10 04:29:09;;;;;;;5.50;2.80;;;;;;;9.13;75.25;95861.09;10416257;28;20282;-63
2023/05/10 04:34:10;;;;;;;5.03;2.27;;;;;;;9.24;74.46;95843.25;10416523;28;20231;-63
2023/05/10 04:39:10;;;;;;;3.37;2.70;;;;;;;9.38;73.70;95835.69;10415803;28;20220;-62
2023/05/10 04:44:10;;;;;;;4.30;2.13;;;;;;;9.56;73.07;95825.78;10415728;28;20215;-63
2023/05/10 04:49:11;;;;;;;10.50;3.37;;;;;;;9.71;72.30;95835.50;10415611;28;20200;-63
2023/05/10 04:54:11;;;;;;;2.60;2.23;;;;;;;9.74;72.54;95824.69;10415043;28;20223;-63
2023/05/10 04:59:12;;;;;;;4.47;1.80;;;;;;;9.89;71.74;95825.59;10409132;28;20246;-62
2023/05/10 05:04:12;;;;;;;6.67;2.33;;;;;;;10.02;70.89;95806.69;10414571;28;20217;-63
2023/05/10 05:09:12;;;;;;;1.87;1.77;;;;;;;10.11;70.53;95810.06;10414673;28;20216;-63
2023/05/10 05:14:13;;;;;;;5.50;2.80;;;;;;;10.25;71.10;95814.53;10414054;28;20219;-63
2023/05/10 05:19:13;;;;;;;4.03;2.57;;;;;;;10.42;70.83;95824.91;10414105;28;20224;-62
2023/05/10 05:24:13;;;;;;;5.73;2.73;;;;;;;10.47;69.51;95805.03;10414147;28;20243;-61
2023/05/10 05:29:14;;;;;;;3.33;1.87;;;;;;;10.66;70.30;95840.38;10413945;28;20195;-63
2023/05/10 05:34:14;;;;;;;3.87;2.77;;;;;;;10.80;69.27;95803.91;10411979;28;20240;-61
2023/05/10 05:39:14;;;;;;;4.87;2.30;;;;;;;11.03;68.83;95799.38;10423898;23;20340;-66
2023/05/10 05:44:15;;;;;;;2.87;2.23;;;;;;;11.18;68.38;95793.28;10412847;28;20192;-67
2023/05/10 05:49:15;;;;;;;3.53;2.30;;;;;;;11.27;67.82;95789.59;10404432;28;20204;-66
2023/05/10 05:54:16;;;;;;;3.23;2.00;;;;;;;11.46;67.68;95796.06;10392468;28;20260;-66
2023/05/10 05:59:16;;;;;;;4.63;2.70;;;;;;;11.40;67.00;95792.34;10372048;28;20757;-66
2023/05/10 06:04:17;;;;;;;4.57;2.25;;;;;;;11.95;66.78;95805.06;10372052;28;20246;-66
2023/05/10 06:09:17;;;;;;;3.03;2.75;;;;;;;12.37;65.32;95790.25;10371738;28;20711;-66
2023/05/10 06:14:20;;;;;;;4.50;2.38;;;;;;;12.64;64.40;95803.59;10400383;28;20211;-66
2023/05/10 06:19:20;;;;;;;6.57;2.08;;;;;;;12.83;62.84;95770.56;10412360;28;20251;-67
2023/05/10 06:24:21;;;;;;;2.53;2.28;;;;;;;13.34;62.37;95793.91;10412007;28;20221;-67
2023/05/10 06:29:21;;;;;;;2.42;2.17;;;;;;;13.78;60.17;95769.94;10411811;28;20231;-65
2023/05/10 06:34:22;;;;;;;3.78;2.28;;;;;;;13.99;59.76;95761.06;10411919;28;20544;-67
2023/05/10 06:39:22;;;;;;;11.63;6.88;;;;;;;13.89;60.60;95785.97;10411306;28;20634;-66
2023/05/10 06:44:22;;;;;;;2.97;2.53;;;;;;;14.15;58.32;95749.31;10411348;28;20568;-65
2023/05/10 06:49:23;;;;;;;1.75;1.63;;;;;;;14.80;56.06;95726.53;10411425;28;20205;-66
2023/05/10 06:54:23;;;;;;;7.60;2.75;;;;;;;14.94;56.84;95766.84;10411458;28;20239;-66
2023/05/10 06:59:24;;;;;;;3.35;2.35;;;;;;;15.20;56.21;95762.53;10410280;28;20224;-65
2023/05/10 07:04:24;;;;;;;3.08;2.40;;;;;;;14.60;57.27;95784.56;10406932;28;20686;-66
2023/05/10 07:09:29;;;;;;;3.03;2.25;;;;;;;14.50;57.91;95797.34;10408572;28;20320;-66
2023/05/10 07:14:30;;;;;;;3.17;2.53;;;;;;;15.21;58.28;95831.94;10409515;28;20207;-67
2023/05/10 07:19:32;;;;;;;5.68;2.70;;;;;;;14.64;56.31;95769.19;10411062;28;20248;-68
2023/05/10 07:24:33;;;;;;;2.42;2.15;;;;;;;15.04;56.29;95770.88;10455559;28;20185;-67
2023/05/10 07:29:33;;;;;;;2.95;2.35;;;;;;;15.40;57.01;95804.66;10458283;28;20209;-66
2023/05/10 07:34:33;;;;;;;6.78;2.55;;;;;;;15.89;56.45;95817.47;10439850;28;20616;-67
2023/05/10 07:39:34;;;;;;;3.30;1.90;;;;;;;15.37;57.30;95822.75;10407506;28;20613;-68
2023/05/10 07:44:34;;;;;;;3.90;2.80;;;;;;;14.76;57.04;95809.72;10387161;28;20189;-67
2023/05/10 07:49:35;;;;;;;3.25;2.40;;;;;;;14.72;59.37;95845.41;10385758;28;20209;-67
2023/05/10 07:54:35;;;;;;;9.25;2.90;;;;;;;15.01;58.27;95821.41;10391810;28;20272;-66
2023/05/10 07:59:36;;;;;;;3.33;2.28;;;;;;;14.75;59.21;95831.00;10392856;28;20586;-66
2023/05/10 08:04:36;;;;;;;3.35;2.58;;;;;;;15.15;57.46;95807.19;10404864;28;20279;-67
2023/05/10 08:09:37;;;;;;;3.10;2.60;;;;;;;15.02;57.19;95800.13;10409804;28;20204;-68
2023/05/10 08:14:37;;;;;;;3.55;2.58;;;;;;;16.21;56.14;95810.34;10397729;28;20251;-66
2023/05/10 08:19:37;;;;;;;3.22;2.53;;;;;;;16.14;54.54;95777.88;10392665;28;20224;-67
2023/05/10 08:24:38;;;;;;;7.60;2.97;;;;;;;16.58;54.24;95786.66;10394894;28;20575;-66
2023/05/10 08:29:39;;;;;;;4.25;2.30;;;;;;;16.18;55.88;95818.72;10390384;28;20213;-67
2023/05/10 08:34:39;;;;;;;5.25;2.42;;;;;;;15.70;56.36;95819.97;10392533;28;20191;-65
2023/05/10 08:39:40;;;;;;;3.22;2.92;;;;;;;15.55;55.86;95825.53;10386443;28;20235;-66
2023/05/10 08:44:41;;;;;;;5.70;2.70;;;;;;;16.24;56.49;95852.22;10373257;28;20284;-66
2023/05/10 08:49:41;;;;;;;5.45;2.60;;;;;;;16.29;55.31;95839.16;10369520;28;20617;-65
2023/05/10 08:55:07;;;;;;;3.88;2.95;;;;;;;16.72;55.22;95867.53;10397287;28;20204;-68
2023/05/10 09:00:19;;;;;;;5.68;3.05;;;;;;;16.47;54.04;95838.41;10400873;28;20232;-66
2023/05/10 09:05:20;;;;;;;5.18;2.95;;;;;;;16.37;55.33;95878.56;10390666;28;20216;-66
2023/05/10 09:10:21;;;;;;;4.63;3.10;;;;;;;16.82;54.11;95851.16;10394434;28;20201;-66
2023/05/10 09:15:22;;;;;;;3.22;2.92;;;;;;;17.28;54.54;95875.59;10390674;28;20277;-66
2023/05/10 09:20:23;;;;;;;6.90;2.88;;;;;;;16.89;55.56;95894.28;10393047;28;20299;-66
2023/05/10 09:25:24;;;;;;;4.90;2.92;;;;;;;16.69;54.93;95872.41;10390405;28;20193;-65
2023/05/10 09:30:29;;;;;;;4.03;2.72;;;;;;;17.04;55.02;95891.28;10390502;28;20208;-66
2023/05/10 09:35:31;;;;;;;9.50;2.45;;;;;;;17.07;53.88;95882.91;10391154;28;20223;-67
2023/05/10 09:40:31;;;;;;;7.13;2.88;;;;;;;17.50;52.81;95867.22;10391571;28;20603;-64
2023/05/10 09:45:33;;;;;;;6.90;3.30;;;;;;;17.27;54.72;95887.19;10389656;28;20204;-66
2023/05/10 09:50:33;;;;;;;5.55;3.10;;;;;;;17.54;54.73;95903.63;10382144;28;20213;-66
2023/05/10 09:55:45;;;;;;;6.43;2.88;;;;;;;18.03;51.65;95850.69;10388232;28;20934;-66
2023/05/10 10:00:51;;;;;;;4.28;2.95;;;;;;;18.52;51.10;95847.94;10404945;28;20228;-66
2023/05/10 10:05:53;;;;;;;6.40;3.03;;;;;;;18.13;52.91;95874.81;10411375;28;20275;-66
2023/05/10 10:10:53;;;;;;;4.30;3.60;;;;;;;17.36;53.77;95883.22;10411249;28;20220;-66
2023/05/10 10:15:54;;;;;;;3.42;3.13;;;;;;;17.47;52.04;95834.03;10417228;28;20265;-66
2023/05/10 10:20:55;;;;;;;3.05;2.65;;;;;;;18.10;52.22;95858.53;10451345;28;20228;-66
2023/05/10 10:25:56;;;;;;;4.95;2.80;;;;;;;18.02;53.06;95872.91;10450349;28;20574;-67
2023/05/10 10:31:01;;;;;;;3.92;2.80;;;;;;;17.94;52.98;95874.03;10451115;28;20199;-67
2023/05/10 10:36:03;;;;;;;6.95;3.00;;;;;;;17.67;54.05;95897.34;10449334;28;20196;-66
2023/05/10 10:41:11;;;;;;;3.75;2.85;;;;;;;17.62;53.01;95874.19;10451386;28;20251;-66
2023/05/10 10:46:17;;;;;;;4.57;3.33;;;;;;;19.23;51.69;95887.81;10449694;28;20212;-67
2023/05/10 10:51:17;;;;;;;3.20;2.90;;;;;;;18.81;50.77;95866.69;10443610;28;20196;-67
2023/05/10 10:56:23;;;;;;;4.45;2.85;;;;;;;18.70;51.86;95890.31;10409927;28;20265;-68
2023/05/10 11:01:23;;;;;;;6.43;3.60;;;;;;;18.73;50.41;95851.91;10409574;28;20252;-67
2023/05/10 11:06:31;;;;;;;5.38;3.08;;;;;;;20.35;49.19;95869.06;10408681;28;20711;-68
2023/05/10 11:11:31;;;;;;;3.90;3.13;;;;;;;19.73;51.54;95910.41;10409188;28;20207;-68
2023/05/10 11:16:42;;;;;;;8.00;3.13;;;;;;;19.39;50.67;95873.84;10409163;28;20220;-68
2023/05/10 11:21:48;;;;;;;4.13;3.40;;;;;;;17.32;54.00;95891.84;10406826;28;20225;-67
2023/05/10 11:26:53;;;;;;;5.57;3.35;;;;;;;17.52;55.12;95924.22;10408904;28;20239;-67
2023/05/10 11:31:57;;;;;;;4.25;3.13;;;;;;;19.57;49.96;95875.56;10414735;28;20250;-67
2023/05/10 11:36:57;;;;;;;8.27;3.63;;;;;;;18.18;52.64;95895.34;10416435;23;20260;-66
2023/05/10 11:41:58;;;;;;;3.85;3.10;;;;;;;19.67;50.09;95874.94;10389773;28;20293;-67
2023/05/10 11:47:00;;;;;;;5.72;3.33;;;;;;;19.91;49.40;95870.41;10415706;28;20212;-66
2023/05/10 11:52:07;;;;;;;5.82;3.20;;;;;;;18.53;53.48;95929.16;10416075;28;20204;-66
2023/05/10 11:57:07;;;;;;;6.15;3.67;;;;;;;17.43;54.56;95921.06;10416546;28;20216;-66
2023/05/10 12:02:08;;;;;;;7.20;3.45;;;;;;;17.25;55.26;95929.78;10415544;28;20261;-67
2023/05/10 12:07:09;;;;;;;3.90;3.17;;;;;;;17.32;54.90;95934.19;10377037;28;20223;-66
2023/05/10 12:12:09;;;;;;;8.10;3.88;;;;;;;17.42;55.06;95935.31;10372285;28;20532;-66
2023/05/10 12:17:13;;;;;;;5.57;2.97;;;;;;;17.32;55.74;95968.59;10374534;28;20209;-66
2023/05/10 12:22:13;;;;;;;4.93;4.20;;;;;;;16.81;56.93;95981.00;10374293;28;20598;-66
2023/05/10 12:27:14;;;;;;;5.43;4.10;;;;;;;17.35;58.00;96015.84;10373792;28;20213;-66
2023/05/10 12:32:14;;;;;;;6.28;3.97;;;;;;;17.41;55.70;95978.72;10373873;28;20327;-66
2023/05/10 12:37:15;;;;;;;4.53;3.95;;;;;;;17.76;54.13;95950.84;10373257;28;20336;-66
2023/05/10 12:42:16;;;;;;;6.05;3.75;;;;;;;18.48;52.17;95932.47;10372321;28;20221;-66
2023/05/10 12:47:16;;;;;;;7.03;3.90;;;;;;;18.22;54.30;95972.59;10373346;28;20692;-66
2023/05/10 12:52:17;;;;;;;4.30;3.90;;;;;;;18.29;53.41;95960.06;10373085;28;20236;-65
2023/05/10 12:57:17;;;;;;;4.55;3.78;;;;;;;18.03;54.03;95956.72;10385985;28;20220;-66
2023/05/10 13:02:18;;;;;;;5.03;3.70;;;;;;;18.09;53.05;95939.13;10413701;28;20212;-66
2023/05/10 13:07:18;;;;;;;6.35;3.40;;;;;;;18.32;52.94;95943.72;10414829;28;20255;-66
2023/05/10 13:12:18;;;;;;;5.13;3.85;;;;;;;19.24;52.61;95971.78;10407104;28;20189;-66
2023/05/10 13:18:20;;;;;;;6.00;4.22;;;;;;;19.03;51.97;95943.91;10415427;28;20219;-67
2023/05/10 13:23:20;;;;;;;6.88;4.18;;;;;;;19.01;52.07;95951.31;10288998;28;20203;-65
2023/05/10 13:28:21;;;;;;;8.60;3.85;;;;;;;18.97;52.50;95952.78;10393221;28;20694;-66
2023/05/10 13:33:21;;;;;;;4.25;3.38;;;;;;;19.23;51.54;95931.13;10412497;28;20681;-66
2023/05/10 13:38:21;;;;;;;4.45;3.45;;;;;;;19.84;49.82;95912.25;10410837;28;20759;-66
2023/05/10 13:43:22;;;;;;;5.13;3.70;;;;;;;18.59;51.56;95900.88;10412099;28;20565;-66
2023/05/10 13:48:22;;;;;;;4.25;3.50;;;;;;;17.97;54.17;95952.28;10372127;28;20213;-66
2023/05/10 13:53:23;;;;;;;6.75;3.95;;;;;;;18.30;53.68;95951.88;10369904;28;20204;-66
2023/05/10 13:58:23;;;;;;;4.78;3.63;;;;;;;18.16;53.37;95939.81;10383324;28;20213;-65
2023/05/10 14:03:23;;;;;;;7.10;3.97;;;;;;;18.47;54.11;95964.53;10404975;28;20288;-66
2023/05/10 14:08:24;;;;;;;4.35;3.60;;;;;;;18.82;52.67;95930.13;10411004;28;20303;-66
2023/05/10 14:13:24;;;;;;;4.78;3.28;;;;;;;18.95;52.00;95920.38;10410755;28;20200;-66
2023/05/10 14:18:25;;;;;;;5.65;4.32;;;;;;;18.01;53.19;95926.97;10387020;28;20221;-66
2023/05/10 14:23:28;;;;;;;4.28;3.80;;;;;;;18.25;52.90;95921.75;10369903;28;20555;-66
2023/05/10 14:28:28;;;;;;;3.75;3.15;;;;;;;17.80;53.42;95925.56;10369428;28;20713;-66
2023/05/10 14:33:29;;;;;;;5.65;4.13;;;;;;;17.69;53.60;95932.41;10369502;28;20197;-65
2023/05/10 14:38:29;;;;;;;9.88;4.07;;;;;;;17.75;56.39;95995.09;10369251;28;20245;-66
2023/05/10 14:43:30;;;;;;;7.10;4.63;;;;;;;17.60;63.24;96104.03;10369029;28;20201;-66
2023/05/10 14:48:30;;;;;;;7.53;4.72;;;;;;;17.91;64.06;96112.19;10368061;28;20713;-66
2023/05/10 14:53:31;;;;;;;13.40;4.80;;;;;;;16.67;65.92;96104.56;10368942;28;20185;-66
2023/05/10 14:58:31;;;;;;;5.88;4.68;;;;;;;18.44;62.64;96082.47;10369166;28;20220;-66
2023/05/10 15:03:31;;;;;;;5.40;4.18;;;;;;;18.74;60.96;96063.13;10370888;28;20243;-66
2023/05/10 15:08:32;;;;;;;5.13;3.67;;;;;;;18.63;61.46;96072.66;10377341;28;20247;-66
2023/05/10 15:13:32;;;;;;;6.15;4.13;;;;;;;18.09;62.17;96075.09;10376974;28;20201;-66
2023/05/10 15:18:32;;;;;;;6.72;3.95;;;;;;;17.73;64.58;96105.75;10385112;28;20217;-65
2023/05/10 15:23:33;;;;;;;4.90;4.15;;;;;;;17.97;62.49;96082.94;10387968;28;20192;-66
2023/05/10 15:28:33;;;;;;;8.27;4.25;;;;;;;17.67;62.85;96069.53;10404006;28;20217;-66
2023/05/10 15:33:33;;;;;;;5.60;4.32;;;;;;;17.17;65.52;96115.34;10401777;28;20283;-66
2023/05/10 15:38:34;;;;;;;7.63;4.68;;;;;;;17.02;67.11;96125.41;10416271;28;20264;-66
2023/05/10 15:43:34;;;;;;;5.95;4.00;;;;;;;16.96;68.13;96124.41;10416720;28;20218;-66
2023/05/10 15:48:35;;;;;;;4.78;4.00;;;;;;;17.21;66.55;96108.59;10416330;28;20224;-66
2023/05/10 15:53:35;;;;;;;4.75;3.67;;;;;;;17.29;66.02;96116.28;10401407;28;20574;-65
2023/05/10 15:58:37;;;;;;;6.93;3.88;;;;;;;17.19;67.34;96123.06;10375247;28;20252;-66
2023/05/10 16:03:37;;;;;;;3.80;3.30;;;;;;;17.18;68.09;96137.31;10374709;28;20193;-66
2023/05/10 16:08:38;;;;;;;4.47;4.00;;;;;;;17.04;68.65;96126.00;10374742;28;20217;-65
2023/05/10 16:13:38;;;;;;;4.65;4.10;;;;;;;17.32;67.15;96112.41;10374035;28;20283;-65
2023/05/10 16:18:38;;;;;;;6.55;4.18;;;;;;;17.42;66.86;96112.72;10373752;28;20236;-65
2023/05/10 16:23:39;;;;;;;7.43;4.40;;;;;;;17.76;65.67;96107.97;10374425;28;20627;-65
2023/05/10 16:28:40;;;;;;;7.38;4.10;;;;;;;17.60;65.56;96101.38;10381172;28;20582;-66
2023/05/10 16:33:40;;;;;;;8.73;4.28;;;;;;;17.42;66.19;96106.63;10387995;28;20185;-66
2023/05/10 16:38:40;;;;;;;4.57;3.65;;;;;;;16.94;68.97;96151.06;10389814;28;20239;-66
2023/05/10 16:43:41;;;;;;;6.93;4.35;;;;;;;17.16;68.37;96142.03;10388538;28;20196;-65
2023/05/10 16:48:41;;;;;;;4.18;3.78;;;;;;;16.75;70.54;96154.56;10376085;28;20213;-65
2023/05/10 16:53:41;;;;;;;8.40;3.95;;;;;;;16.41;72.38;96167.88;10371386;28;20188;-66
2023/05/10 16:58:42;;;;;;;4.25;3.50;;;;;;;16.67;72.07;96160.09;10369616;28;20607;-65
2023/05/10 17:03:42;;;;;;;4.63;4.03;;;;;;;16.68;70.56;96146.69;10371450;28;20194;-65
2023/05/10 17:08:43;;;;;;;9.63;5.65;;;;;;;16.69;70.96;96164.19;10378994;28;20657;-66
2023/05/10 17:13:43;;;;;;;6.72;5.15;;;;;;;16.52;71.91;96161.19;10370288;28;20672;-66
2023/05/10 17:18:44;;;;;;;5.53;3.80;;;;;;;16.43;72.82;96169.53;10370359;28;20233;-65
2023/05/10 17:23:44;;;;;;;4.65;3.28;;;;;;;16.38;73.91;96178.06;10369716;28;20220;-66
2023/05/10 17:28:45;;;;;;;3.83;3.17;;;;;;;16.45;73.38;96178.88;10368410;28;20300;-65
2023/05/10 17:33:45;;;;;;;5.95;3.67;;;;;;;16.08;74.69;96188.25;10370054;28;20193;-64
2023/05/10 17:38:46;;;;;;;4.50;3.70;;;;;;;15.91;76.94;96201.91;10395519;23;20247;-66
2023/05/10 17:43:46;;;;;;;30.65;16.08;;;;;;;15.75;78.45;96199.63;10407750;28;20698;-65
2023/05/10 17:48:46;;;;;;;9.77;7.55;;;;;;;15.61;78.45;96210.16;10409847;28;20218;-65
2023/05/10 17:53:47;;;;;;;9.95;4.88;;;;;;;15.73;77.43;96201.63;10410098;28;20283;-65
2023/05/10 17:58:47;;;;;;;10.88;5.05;;;;;;;15.79;77.47;96195.56;10409519;28;20315;-66
2023/05/10 18:03:48;;;;;;;8.30;4.72;;;;;;;15.74;77.35;96203.28;10414815;28;20192;-66
2023/05/10 18:08:48;;;;;;;5.68;5.07;;;;;;;15.60;77.78;96197.16;10412568;28;20201;-66
2023/05/10 18:13:49;;;;;;;4.85;4.35;;;;;;;15.42;78.65;96198.56;10412400;28;20218;-65
2023/05/10 18:18:49;;;;;;;8.27;5.60;;;;;;;15.12;80.25;96209.41;10412310;28;20251;-65
2023/05/10 18:23:49;;;;;;;11.00;5.15;;;;;;;15.11;81.72;96217.53;10411973;28;20247;-66
2023/05/10 18:28:50;;;;;;;8.38;5.70;;;;;;;14.92;83.15;96222.53;10412126;28;20208;-66
2023/05/10 18:33:50;;;;;;;6.97;5.28;;;;;;;14.47;86.05;96222.03;10411818;28;20200;-66
2023/05/10 18:38:50;;;;;;;8.45;6.32;;;;;;;14.08;89.49;96221.56;10411019;28;20244;-66
2023/05/10 18:43:51;;;;;;;10.27;6.00;;;;;;;14.01;89.80;96228.63;10411209;28;20232;-65
2023/05/10 18:48:52;;;;;;;14.10;7.07;;;;;;;13.42;93.22;96234.94;10410880;28;20201;-66
2023/05/10 18:53:52;;;;;;;13.93;10.48;;;;;;;12.99;98.71;96235.63;10410901;28;20223;-66
2023/05/10 18:58:53;;;;;;;11.38;8.73;;;;;;;12.77;100.00;96236.53;10410484;28;20230;-66
2023/05/10 19:03:53;;;;;;;12.05;8.38;;;;;;;12.41;100.00;96243.31;10410752;28;20189;-66
2023/05/10 19:08:54;;;;;;;16.30;9.57;;;;;;;12.23;100.00;96253.34;10410315;28;20208;-66
2023/05/10 19:13:54;;;;;;;9.38;7.40;;;;;;;11.92;100.00;96256.88;10410285;28;20261;-66
2023/05/10 19:18:55;;;;;;;10.15;7.68;;;;;;;12.00;100.00;96253.38;10410375;28;20339;-66
2023/05/10 19:23:56;;;;;;;9.45;6.78;;;;;;;11.99;100.00;96259.63;10410301;28;20232;-66
2023/05/10 19:28:56;;;;;;;9.57;6.90;;;;;;;12.11;100.00;96260.84;10410127;28;20208;-66
2023/05/10 19:33:57;;;;;;;10.60;7.15;;;;;;;11.31;100.00;96275.13;10410242;28;20287;-66
2023/05/10 19:38:57;;;;;;;8.30;6.93;;;;;;;11.51;100.00;96271.06;10409787;28;20232;-66
2023/05/10 19:43:58;;;;;;;8.93;6.43;;;;;;;11.55;100.00;96275.00;10409949;28;20283;-66
2023/05/10 19:48:58;;;;;;;10.57;6.95;;;;;;;11.16;100.00;96267.97;10409970;28;20212;-66
2023/05/10 19:53:59;;;;;;;14.98;7.93;;;;;;;11.10;100.00;96268.66;10417036;28;20215;-66
2023/05/10 19:59:01;;;;;;;8.48;6.88;;;;;;;11.24;100.00;96269.75;10417336;28;20228;-66
2023/05/10 20:04:02;;;;;;;11.50;6.85;;;;;;;10.84;100.00;96274.16;10417186;28;20196;-66
2023/05/10 20:09:03;;;;;;;9.90;7.70;;;;;;;10.60;100.00;96283.75;10416849;28;20327;-66
2023/05/10 20:14:04;;;;;;;11.55;6.90;;;;;;;10.50;100.00;96278.66;10417133;28;20231;-66
2023/05/10 20:19:04;;;;;;;12.50;6.80;;;;;;;10.55;100.00;96286.06;10416849;28;20224;-66
2023/05/10 20:24:06;;;;;;;7.10;6.00;;;;;;;10.44;100.00;96283.75;10416658;28;20204;-66
2023/05/10 20:29:08;;;;;;;9.70;6.15;;;;;;;10.41;100.00;96290.13;10416581;28;20213;-66
2023/05/10 20:34:08;;;;;;;10.85;6.57;;;;;;;10.41;100.00;96284.91;10416340;28;20200;-66
2023/05/10 20:39:09;;;;;;;10.45;6.78;;;;;;;10.39;100.00;96291.31;10416042;28;20235;-66
2023/05/10 20:44:09;;;;;;;9.80;7.03;;;;;;;10.07;100.00;96287.69;10416291;28;20192;-66
2023/05/10 20:49:09;;;;;;;11.63;6.40;;;;;;;10.12;100.00;96293.25;10416358;28;20208;-65
2023/05/10 20:54:10;;;;;;;8.27;6.33;;;;;;;10.00;100.00;96290.97;10415760;28;20750;-66
2023/05/10 20:59:10;;;;;;;8.37;5.90;;;;;;;10.06;100.00;96286.03;10415759;28;20706;-66
2023/05/10 21:04:10;;;;;;;8.30;6.60;;;;;;;9.94;100.00;96293.44;10414961;28;20700;-65
2023/05/10 21:09:11;;;;;;;12.13;6.23;;;;;;;9.83;100.00;96284.06;10415045;28;20691;-66
2023/05/10 21:14:11;;;;;;;12.00;6.50;;;;;;;9.81;100.00;96283.41;10414975;28;20197;-65
2023/05/10 21:19:12;;;;;;;17.17;6.80;;;;;;;9.85;100.00;96287.34;10414556;28;20231;-65
2023/05/10 21:24:12;;;;;;;9.00;6.27;;;;;;;9.74;100.00;96295.50;10414738;28;20193;-65
2023/05/10 21:29:13;;;;;;;7.80;5.70;;;;;;;9.66;100.00;96291.06;10414167;28;20208;-65
2023/05/10 21:34:13;;;;;;;9.33;5.60;;;;;;;9.70;100.00;96295.00;10412986;28;20279;-65
2023/05/10 21:39:13;;;;;;;12.60;7.67;;;;;;;9.64;100.00;96296.47;10412977;28;20267;-65
2023/05/10 21:44:13;;;;;;;8.87;6.23;;;;;;;9.57;100.00;96297.28;10413821;28;20192;-65
2023/05/10 21:49:14;;;;;;;14.30;6.03;;;;;;;9.48;100.00;96293.84;10413517;28;20216;-65
2023/05/10 21:54:14;;;;;;;8.27;6.03;;;;;;;9.49;100.00;96299.88;10413350;28;20231;-65
2023/05/10 21:59:15;;;;;;;14.10;6.17;;;;;;;9.24;100.00;96298.00;10413068;28;20315;-65
2023/05/10 22:04:15;;;;;;;8.50;6.67;;;;;;;9.16;100.00;96300.59;10412836;28;20176;-65
2023/05/10 22:09:15;;;;;;;8.77;6.43;;;;;;;9.10;100.00;96306.47;10412909;28;20262;-65
2023/05/10 22:14:16;;;;;;;8.63;5.90;;;;;;;9.00;100.00;96308.38;10412079;28;20283;-65
2023/05/10 22:19:16;;;;;;;8.00;6.27;;;;;;;8.98;100.00;96307.72;10412428;28;20254;-65
2023/05/10 22:24:17;;;;;;;9.63;5.97;;;;;;;9.06;100.00;96310.34;10412311;28;20197;-65
2023/05/10 22:29:17;;;;;;;12.93;6.03;;;;;;;9.09;100.00;96313.47;10412051;28;20248;-65
2023/05/10 22:34:17;;;;;;;9.40;6.00;;;;;;;9.12;100.00;96316.75;10412007;28;20500;-65
2023/05/10 22:39:18;;;;;;;10.43;5.90;;;;;;;9.10;100.00;96309.06;10411438;28;20661;-65
2023/05/10 22:44:18;;;;;;;8.60;6.10;;;;;;;8.97;100.00;96306.06;10411770;28;20533;-65
2023/05/10 22:49:18;;;;;;;8.30;5.97;;;;;;;8.91;100.00;96310.94;10411458;28;20698;-66
2023/05/10 22:54:19;;;;;;;10.40;6.20;;;;;;;8.89;100.00;96301.63;10411613;28;20576;-65
2023/05/10 22:59:19;;;;;;;8.57;5.90;;;;;;;8.85;100.00;96305.50;10411070;28;20633;-65
2023/05/10 23:04:20;;;;;;;7.50;6.10;;;;;;;8.78;100.00;96304.53;10411154;28;20534;-66
2023/05/10 23:09:20;;;;;;;8.13;5.80;;;;;;;8.67;100.00;96309.03;10411073;28;20221;-66
2023/05/10 23:14:21;;;;;;;6.33;5.57;;;;;;;8.71;100.00;96306.91;10411277;28;20196;-66
2023/05/10 23:19:21;;;;;;;7.33;5.77;;;;;;;8.56;100.00;96302.28;10411235;28;20241;-66